Time;durP1;ratioP1;P1;durP2;ratioP2;P2;SDS_P1;SDS_P2;PMS_P1;PMS_P2;Temp;Humidity;BMP_temperature;BMP_pressure;BME280_temperature;BME280_humidity;BME280_pressure;Samples;Min_cycle;Max_cycle;Signal;HPM_P1;HPM_P2
2023/02/22 00:00:28;;;;;;;43.13;18.58;;;;;;;;;;5015069;28;20126;-73
2023/02/22 00:02:58;;;;;;;37.55;18.20;;;;;;;;;;5011708;28;20093;-72
2023/02/22 00:05:26;;;;;;;40.38;18.50;;;;;;;;;;5017803;28;20069;-72
2023/02/22 00:07:52;;;;;;;36.90;18.02;;;;;;;;;;5011639;28;20037;-73
2023/02/22 00:10:20;;;;;;;36.40;19.05;;;;;;;;;;5016574;28;20088;-73
2023/02/22 00:12:47;;;;;;;36.38;18.88;;;;;;;;;;5024185;28;20052;-73
2023/02/22 00:15:15;;;;;;;40.00;19.75;;;;;;;;;;5028339;28;20042;-73
2023/02/22 00:17:40;;;;;;;37.97;19.17;;;;;;;;;;5010381;28;20140;-73
2023/02/22 00:20:07;;;;;;;45.97;20.58;;;;;;;;;;5020703;28;20542;-72
2023/02/22 00:22:32;;;;;;;32.85;17.95;;;;;;;;;;5010908;28;20129;-73
2023/02/22 00:24:58;;;;;;;38.78;17.88;;;;;;;;;;5018666;28;20125;-75
2023/02/22 00:27:23;;;;;;;32.90;17.58;;;;;;;;;;5009260;28;20104;-72
2023/02/22 00:29:49;;;;;;;29.58;15.63;;;;;;;;;;5018576;28;20120;-73
2023/02/22 00:32:15;;;;;;;32.17;16.15;;;;;;;;;;5016074;28;20031;-73
2023/02/22 00:34:42;;;;;;;31.15;17.13;;;;;;;;;;5007024;28;20486;-73
2023/02/22 00:37:09;;;;;;;31.35;16.38;;;;;;;;;;5009150;28;20083;-72
2023/02/22 00:39:35;;;;;;;33.42;16.25;;;;;;;;;;5013805;28;20033;-72
2023/02/22 00:42:01;;;;;;;30.00;15.73;;;;;;;;;;5012862;28;20485;-72
2023/02/22 00:44:26;;;;;;;33.13;17.23;;;;;;;;;;5011958;28;20029;-73
2023/02/22 00:46:52;;;;;;;34.20;17.63;;;;;;;;;;5011823;28;20492;-72
2023/02/22 00:49:18;;;;;;;34.30;16.50;;;;;;;;;;5013030;28;20041;-73
2023/02/22 00:51:43;;;;;;;31.90;17.15;;;;;;;;;;5009205;28;20050;-73
2023/02/22 00:54:09;;;;;;;34.75;16.95;;;;;;;;;;5011058;28;20128;-77
2023/02/22 00:56:36;;;;;;;30.45;16.17;;;;;;;;;;5020361;28;20033;-74
2023/02/22 00:59:02;;;;;;;37.88;17.60;;;;;;;;;;5015881;28;20450;-73
2023/02/22 01:01:29;;;;;;;38.45;17.40;;;;;;;;;;5014789;28;20121;-73
2023/02/22 01:03:54;;;;;;;30.88;16.90;;;;;;;;;;5012390;28;20038;-76
2023/02/22 01:06:20;;;;;;;36.05;16.98;;;;;;;;;;5013121;28;20484;-73
2023/02/22 01:08:46;;;;;;;33.45;16.50;;;;;;;;;;5009527;28;20030;-73
2023/02/22 01:11:12;;;;;;;35.28;16.40;;;;;;;;;;5022834;28;20037;-73
2023/02/22 01:13:38;;;;;;;35.97;17.42;;;;;;;;;;5011456;28;20489;-73
2023/02/22 01:16:07;;;;;;;35.17;17.73;;;;;;;;;;5002857;28;20045;-74
2023/02/22 01:18:34;;;;;;;36.65;16.90;;;;;;;;;;5009431;28;20087;-73
2023/02/22 01:21:00;;;;;;;42.33;17.25;;;;;;;;;;5012632;28;20108;-73
2023/02/22 01:23:26;;;;;;;35.58;18.35;;;;;;;;;;4998815;28;20034;-73
2023/02/22 01:25:52;;;;;;;44.55;17.35;;;;;;;;;;5027384;28;20041;-73
2023/02/22 01:28:17;;;;;;;34.35;17.48;;;;;;;;;;5013556;28;20084;-73
2023/02/22 01:30:43;;;;;;;34.65;17.60;;;;;;;;;;5014398;28;20042;-73
2023/02/22 01:33:09;;;;;;;39.75;18.02;;;;;;;;;;5013455;28;20045;-73
2023/02/22 01:35:39;;;;;;;42.83;17.77;;;;;;;;;;5018352;28;20030;-72
2023/02/22 01:38:07;;;;;;;34.35;17.33;;;;;;;;;;5006071;28;20056;-73
2023/02/22 01:40:38;;;;;;;33.72;18.30;;;;;;;;;;5008376;28;20045;-73
2023/02/22 01:43:18;;;;;;;47.22;20.50;;;;;;;;;;5013796;28;20393;-73
2023/02/22 01:45:49;;;;;;;39.47;19.20;;;;;;;;;;5015681;28;20109;-73
2023/02/22 01:48:43;;;;;;;37.80;18.95;;;;;;;;;;5011979;28;20390;-73
2023/02/22 01:51:15;;;;;;;38.60;18.67;;;;;;;;;;5009388;28;20053;-72
2023/02/22 01:53:46;;;;;;;41.15;18.13;;;;;;;;;;5003610;28;20042;-73
2023/02/22 01:56:12;;;;;;;40.65;19.77;;;;;;;;;;5017908;28;20521;-73
2023/02/22 01:58:40;;;;;;;39.97;18.40;;;;;;;;;;5010663;28;20044;-75
2023/02/22 02:01:06;;;;;;;44.05;19.45;;;;;;;;;;5010121;28;20477;-73
2023/02/22 02:03:33;;;;;;;39.83;18.33;;;;;;;;;;5011559;28;20045;-72
2023/02/22 02:06:01;;;;;;;39.47;18.65;;;;;;;;;;5009504;28;20033;-73
2023/02/22 02:08:48;;;;;;;41.25;18.98;;;;;;;;;;5012081;28;20042;-72
2023/02/22 02:11:17;;;;;;;39.35;18.60;;;;;;;;;;5010617;28;20049;-73
2023/02/22 02:13:43;;;;;;;41.15;18.60;;;;;;;;;;5011304;28;20046;-73
2023/02/22 02:16:08;;;;;;;40.58;18.75;;;;;;;;;;5013106;28;20034;-73
2023/02/22 02:18:34;;;;;;;45.13;19.50;;;;;;;;;;5010294;28;20117;-72
2023/02/22 02:21:17;;;;;;;38.10;17.83;;;;;;;;;;5016848;28;20108;-73
2023/02/22 02:24:04;;;;;;;39.28;17.58;;;;;;;;;;5013089;28;20493;-72
2023/02/22 02:26:48;;;;;;;43.35;18.60;;;;;;;;;;5014062;28;20046;-73
2023/02/22 02:29:32;;;;;;;38.30;17.07;;;;;;;;;;5003562;28;20152;-73
2023/02/22 02:32:06;;;;;;;37.90;18.48;;;;;;;;;;5014859;28;20270;-73
2023/02/22 02:35:10;;;;;;;40.38;19.02;;;;;;;;;;5017324;28;20037;-73
2023/02/22 02:37:46;;;;;;;47.57;18.63;;;;;;;;;;5027536;28;20042;-72
2023/02/22 02:40:21;;;;;;;43.60;19.63;;;;;;;;;;5015146;28;20310;-73
2023/02/22 02:43:09;;;;;;;45.85;17.70;;;;;;;;;;5030460;28;20045;-74
2023/02/22 02:45:39;;;;;;;41.15;18.88;;;;;;;;;;5005596;28;20607;-74
2023/02/22 02:48:06;;;;;;;42.45;18.70;;;;;;;;;;5016882;28;20179;-72
2023/02/22 02:50:40;;;;;;;40.53;18.88;;;;;;;;;;5030024;28;20033;-73
2023/02/22 02:53:07;;;;;;;44.45;19.42;;;;;;;;;;5014988;28;20529;-73
2023/02/22 02:55:35;;;;;;;45.05;19.67;;;;;;;;;;5016050;28;20528;-73
2023/02/22 02:58:03;;;;;;;46.38;19.52;;;;;;;;;;5004931;28;20048;-73
2023/02/22 03:00:30;;;;;;;45.20;19.92;;;;;;;;;;5022664;28;20382;-72
2023/02/22 03:03:21;;;;;;;42.95;18.73;;;;;;;;;;5012050;28;20053;-73
2023/02/22 03:05:52;;;;;;;47.08;18.98;;;;;;;;;;5019408;28;20061;-73
2023/02/22 03:08:41;;;;;;;41.17;18.58;;;;;;;;;;5004110;28;20108;-73
2023/02/22 03:11:17;;;;;;;37.20;17.50;;;;;;;;;;5030249;28;20033;-72
2023/02/22 03:14:00;;;;;;;37.70;17.92;;;;;;;;;;5028247;28;20042;-76
2023/02/22 03:16:42;;;;;;;35.65;17.42;;;;;;;;;;5015887;28;20056;-73
2023/02/22 03:19:26;;;;;;;36.70;17.35;;;;;;;;;;5017207;28;20029;-75
2023/02/22 03:22:04;;;;;;;42.80;17.23;;;;;;;;;;5010436;28;20438;-73
2023/02/22 03:24:35;;;;;;;33.05;15.98;;;;;;;;;;5020981;28;20489;-73
2023/02/22 03:27:08;;;;;;;48.25;17.70;;;;;;;;;;5002427;28;20070;-73
2023/02/22 03:29:38;;;;;;;37.70;17.50;;;;;;;;;;5017203;28;20120;-72
2023/02/22 03:32:08;;;;;;;44.30;18.80;;;;;;;;;;5019478;28;20037;-73
2023/02/22 03:34:44;;;;;;;43.67;19.20;;;;;;;;;;5010764;28;20029;-73
2023/02/22 03:37:17;;;;;;;45.38;18.42;;;;;;;;;;5007817;28;20066;-73
2023/02/22 03:39:43;;;;;;;47.88;21.45;;;;;;;;;;5005869;28;20470;-73
2023/02/22 03:42:14;;;;;;;42.40;20.25;;;;;;;;;;5021850;28;20030;-73
2023/02/22 03:44:40;;;;;;;46.30;20.77;;;;;;;;;;5028304;28;20033;-72
2023/02/22 03:47:09;;;;;;;46.58;20.00;;;;;;;;;;5015914;28;20084;-73
2023/02/22 03:49:39;;;;;;;55.03;20.75;;;;;;;;;;5016750;28;20021;-73
2023/02/22 03:52:06;;;;;;;50.80;21.88;;;;;;;;;;5008791;28;20065;-73
2023/02/22 03:54:32;;;;;;;53.05;20.95;;;;;;;;;;5013250;28;20038;-73
2023/02/22 03:57:03;;;;;;;50.65;20.98;;;;;;;;;;5014041;28;20120;-73
2023/02/22 03:59:29;;;;;;;47.88;21.65;;;;;;;;;;5015593;28;20033;-73
2023/02/22 04:01:55;;;;;;;45.72;20.52;;;;;;;;;;5019298;28;20032;-73
2023/02/22 04:04:22;;;;;;;50.42;20.70;;;;;;;;;;5018907;28;20091;-74
2023/02/22 04:06:48;;;;;;;52.50;21.00;;;;;;;;;;5012475;28;20159;-73
2023/02/22 04:09:14;;;;;;;49.78;22.27;;;;;;;;;;5014229;28;20484;-73
2023/02/22 04:11:40;;;;;;;50.08;20.58;;;;;;;;;;5015907;28;20030;-73
2023/02/22 04:14:05;;;;;;;51.38;21.58;;;;;;;;;;5003279;28;20045;-73
2023/02/22 04:16:31;;;;;;;50.85;20.80;;;;;;;;;;5011424;28;20389;-73
2023/02/22 04:18:56;;;;;;;57.00;22.98;;;;;;;;;;5018149;28;20045;-76
2023/02/22 04:21:22;;;;;;;51.35;22.27;;;;;;;;;;5009501;28;20034;-73
2023/02/22 04:23:47;;;;;;;51.17;22.35;;;;;;;;;;5004062;28;20034;-72
2023/02/22 04:26:13;;;;;;;53.72;21.92;;;;;;;;;;5011922;28;20042;-73
2023/02/22 04:28:39;;;;;;;51.95;21.65;;;;;;;;;;5017239;28;20038;-73
2023/02/22 04:31:04;;;;;;;55.13;22.98;;;;;;;;;;5018078;28;20470;-72
2023/02/22 04:33:30;;;;;;;44.80;21.17;;;;;;;;;;5021089;28;20389;-73
2023/02/22 04:35:56;;;;;;;50.08;21.48;;;;;;;;;;5016919;28;20092;-75
2023/02/22 04:38:24;;;;;;;53.85;23.05;;;;;;;;;;5014187;28;20386;-73
2023/02/22 04:40:51;;;;;;;58.53;25.27;;;;;;;;;;5014233;28;20037;-73
2023/02/22 04:43:16;;;;;;;49.13;21.27;;;;;;;;;;5016806;28;20096;-72
2023/02/22 04:45:42;;;;;;;47.13;22.52;;;;;;;;;;5004756;28;20450;-74
2023/02/22 04:48:07;;;;;;;47.85;21.67;;;;;;;;;;5013001;28;20033;-72
2023/02/22 04:50:33;;;;;;;45.95;21.42;;;;;;;;;;5022305;28;20041;-73
2023/02/22 04:52:58;;;;;;;46.92;22.23;;;;;;;;;;5002533;28;20083;-72
2023/02/22 04:55:24;;;;;;;48.33;21.80;;;;;;;;;;5013259;28;20382;-73
2023/02/22 04:57:49;;;;;;;51.85;21.50;;;;;;;;;;5011112;28;20042;-73
2023/02/22 05:00:17;;;;;;;52.00;23.02;;;;;;;;;;5025021;28;20157;-72
2023/02/22 05:02:42;;;;;;;46.25;21.27;;;;;;;;;;5020049;28;20037;-74
2023/02/22 05:05:07;;;;;;;35.28;15.68;;;;;;;;;;5014789;28;20038;-72
2023/02/22 05:07:33;;;;;;;49.80;22.42;;;;;;;;;;5008264;28;20114;-72
2023/02/22 05:09:58;;;;;;;49.40;21.67;;;;;;;;;;5014894;28;20040;-72
2023/02/22 05:12:26;;;;;;;51.08;22.10;;;;;;;;;;5015525;28;20136;-72
2023/02/22 05:14:51;;;;;;;52.75;21.95;;;;;;;;;;5010295;28;20037;-72
2023/02/22 05:17:17;;;;;;;56.00;20.92;;;;;;;;;;5010069;28;20048;-72
2023/02/22 05:19:42;;;;;;;51.85;22.08;;;;;;;;;;5016322;28;20108;-72
2023/02/22 05:22:08;;;;;;;52.22;21.67;;;;;;;;;;5009809;28;20034;-72
2023/02/22 05:24:33;;;;;;;50.58;21.88;;;;;;;;;;5005254;28;20034;-72
2023/02/22 05:26:59;;;;;;;56.20;22.95;;;;;;;;;;5014513;28;20061;-72
2023/02/22 05:29:24;;;;;;;44.25;20.58;;;;;;;;;;5013893;28;20113;-73
2023/02/22 05:31:50;;;;;;;51.28;21.38;;;;;;;;;;5013729;28;20038;-72
2023/02/22 05:34:16;;;;;;;47.63;19.73;;;;;;;;;;5011932;28;20041;-72
2023/02/22 05:36:41;;;;;;;49.40;19.73;;;;;;;;;;5025909;28;20458;-73
2023/02/22 05:39:06;;;;;;;48.42;21.25;;;;;;;;;;5003154;28;20030;-73
2023/02/22 05:41:32;;;;;;;44.65;18.65;;;;;;;;;;5013489;28;20069;-73
2023/02/22 05:43:57;;;;;;;51.13;21.02;;;;;;;;;;5006876;28;20030;-73
2023/02/22 05:46:23;;;;;;;40.30;18.58;;;;;;;;;;5007203;28;20030;-73
2023/02/22 05:48:49;;;;;;;41.85;19.67;;;;;;;;;;5013735;28;20052;-73
2023/02/22 05:51:15;;;;;;;35.83;18.23;;;;;;;;;;5020198;28;20413;-72
2023/02/22 05:53:41;;;;;;;46.60;20.30;;;;;;;;;;5013147;28;20049;-72
2023/02/22 05:56:07;;;;;;;44.53;19.40;;;;;;;;;;5009165;28;20039;-73
2023/02/22 05:58:32;;;;;;;44.58;20.05;;;;;;;;;;5010705;28;20038;-73
2023/02/22 06:00:58;;;;;;;45.17;19.13;;;;;;;;;;5016467;28;20041;-73
2023/02/22 06:03:23;;;;;;;45.97;19.10;;;;;;;;;;5015207;28;20037;-73
2023/02/22 06:05:49;;;;;;;49.85;18.38;;;;;;;;;;5023205;28;20389;-72
2023/02/22 06:08:14;;;;;;;41.60;18.30;;;;;;;;;;5010812;28;20095;-73
2023/02/22 06:10:40;;;;;;;46.60;19.98;;;;;;;;;;5012107;28;20106;-73
2023/02/22 06:13:05;;;;;;;43.50;19.15;;;;;;;;;;5017395;28;20076;-73
2023/02/22 06:15:31;;;;;;;52.30;20.05;;;;;;;;;;5010624;28;20454;-72
2023/02/22 06:17:57;;;;;;;44.30;19.00;;;;;;;;;;5014102;28;20045;-73
2023/02/22 06:20:24;;;;;;;47.33;18.70;;;;;;;;;;5022735;28;20029;-73
2023/02/22 06:22:51;;;;;;;43.75;18.15;;;;;;;;;;5015656;28;20486;-72
2023/02/22 06:25:19;;;;;;;41.33;16.95;;;;;;;;;;5013923;28;20043;-72
2023/02/22 06:27:44;;;;;;;45.45;19.00;;;;;;;;;;5015110;28;20489;-73
2023/02/22 06:30:11;;;;;;;50.55;18.83;;;;;;;;;;5023387;28;20041;-72
2023/02/22 06:32:37;;;;;;;40.53;17.05;;;;;;;;;;5014961;28;20064;-73
2023/02/22 06:35:03;;;;;;;42.40;17.98;;;;;;;;;;5012776;28;20034;-76
2023/02/22 06:37:29;;;;;;;45.33;18.05;;;;;;;;;;5014827;28;20037;-73
2023/02/22 06:39:54;;;;;;;43.03;18.10;;;;;;;;;;5019667;28;20045;-73
2023/02/22 06:42:20;;;;;;;47.10;17.60;;;;;;;;;;5012021;28;20077;-75
2023/02/22 06:44:45;;;;;;;40.97;16.90;;;;;;;;;;5017035;28;20030;-72
2023/02/22 06:47:10;;;;;;;43.90;17.98;;;;;;;;;;5013372;28;20042;-73
2023/02/22 06:49:36;;;;;;;45.13;17.10;;;;;;;;;;5015898;28;20117;-73
2023/02/22 06:52:04;;;;;;;40.90;17.60;;;;;;;;;;5015118;28;20045;-73
2023/02/22 06:54:29;;;;;;;39.17;16.20;;;;;;;;;;5013922;28;20038;-73
2023/02/22 06:56:55;;;;;;;50.75;18.15;;;;;;;;;;5012822;28;20042;-73
2023/02/22 06:59:22;;;;;;;40.55;17.52;;;;;;;;;;5006892;28;20462;-73
2023/02/22 07:01:48;;;;;;;40.20;16.50;;;;;;;;;;5008790;28;20030;-73
2023/02/22 07:04:14;;;;;;;39.38;16.52;;;;;;;;;;5014678;28;20034;-73
2023/02/22 07:06:47;;;;;;;37.85;17.27;;;;;;;;;;5012259;28;20042;-73
2023/02/22 07:09:13;;;;;;;34.90;15.55;;;;;;;;;;5009844;28;20057;-73
2023/02/22 07:11:39;;;;;;;39.60;15.80;;;;;;;;;;5016434;28;20045;-76
2023/02/22 07:14:05;;;;;;;41.33;16.50;;;;;;;;;;5012041;28;20046;-73
2023/02/22 07:16:30;;;;;;;42.65;17.63;;;;;;;;;;5018807;28;20105;-73
2023/02/22 07:18:56;;;;;;;37.20;16.42;;;;;;;;;;5010718;28;20029;-74
2023/02/22 07:21:21;;;;;;;42.83;15.18;;;;;;;;;;5022068;28;20045;-73
2023/02/22 07:23:54;;;;;;;37.28;15.75;;;;;;;;;;5015373;28;20050;-72
2023/02/22 07:26:20;;;;;;;38.38;14.77;;;;;;;;;;5014654;28;20394;-72
2023/02/22 07:28:45;;;;;;;44.40;17.55;;;;;;;;;;5012152;28;20470;-73
2023/02/22 07:31:11;;;;;;;47.58;17.30;;;;;;;;;;5021626;28;20037;-72
2023/02/22 07:33:36;;;;;;;37.65;15.15;;;;;;;;;;5008000;28;20524;-73
2023/02/22 07:36:02;;;;;;;42.97;16.17;;;;;;;;;;5010744;28;20044;-73
2023/02/22 07:38:27;;;;;;;41.13;16.15;;;;;;;;;;5017378;28;20052;-73
2023/02/22 07:40:53;;;;;;;41.55;15.13;;;;;;;;;;5011225;28;20072;-75
2023/02/22 07:43:24;;;;;;;34.50;14.38;;;;;;;;;;5007924;28;20037;-75
2023/02/22 07:45:51;;;;;;;36.10;15.52;;;;;;;;;;5028035;28;20030;-73
2023/02/22 07:48:17;;;;;;;32.78;14.75;;;;;;;;;;5013793;28;20037;-72
2023/02/22 07:50:43;;;;;;;35.13;14.93;;;;;;;;;;5020004;28;20069;-73
2023/02/22 07:53:21;;;;;;;32.97;15.27;;;;;;;;;;5015036;28;20123;-73
2023/02/22 07:55:50;;;;;;;37.35;14.82;;;;;;;;;;5010373;28;20030;-73
2023/02/22 07:58:18;;;;;;;31.90;14.30;;;;;;;;;;5012975;28;20037;-73
2023/02/22 08:00:46;;;;;;;29.88;14.82;;;;;;;;;;5013501;28;20045;-73
2023/02/22 08:03:12;;;;;;;30.30;14.18;;;;;;;;;;5008960;28;20080;-73
2023/02/22 08:05:39;;;;;;;28.52;13.50;;;;;;;;;;5013598;28;20066;-73
2023/02/22 08:08:06;;;;;;;27.83;13.98;;;;;;;;;;5002763;28;20046;-73
2023/02/22 08:10:33;;;;;;;39.20;14.88;;;;;;;;;;5007951;28;20030;-73
2023/02/22 08:12:59;;;;;;;30.58;14.00;;;;;;;;;;5006894;28;20049;-73
2023/02/22 08:15:34;;;;;;;32.08;14.57;;;;;;;;;;5013348;28;20038;-74
2023/02/22 08:18:01;;;;;;;27.45;13.43;;;;;;;;;;5004669;28;20046;-73
2023/02/22 08:20:27;;;;;;;29.30;13.27;;;;;;;;;;5015626;28;20045;-74
2023/02/22 08:22:53;;;;;;;24.48;12.70;;;;;;;;;;5013219;28;20032;-73
2023/02/22 08:25:20;;;;;;;36.05;18.13;;;;;;;;;;5028739;28;20120;-72
2023/02/22 08:27:46;;;;;;;29.05;13.88;;;;;;;;;;5022428;28;20038;-72
2023/02/22 08:30:18;;;;;;;25.02;13.23;;;;;;;;;;5021673;28;20038;-73
2023/02/22 08:32:45;;;;;;;26.45;12.75;;;;;;;;;;5012276;28;20041;-73
2023/02/22 08:35:12;;;;;;;32.00;12.68;;;;;;;;;;5012748;28;20482;-73
2023/02/22 08:37:42;;;;;;;27.20;12.50;;;;;;;;;;5012523;28;20033;-73
2023/02/22 08:40:08;;;;;;;21.67;11.00;;;;;;;;;;5012336;28;20057;-73
2023/02/22 08:42:33;;;;;;;22.63;11.13;;;;;;;;;;5005632;28;20034;-74
2023/02/22 08:44:59;;;;;;;22.67;11.80;;;;;;;;;;5009689;28;20025;-73
2023/02/22 08:47:24;;;;;;;22.38;11.23;;;;;;;;;;5002440;28;20041;-73
2023/02/22 08:49:50;;;;;;;22.27;10.88;;;;;;;;;;5010142;28;20038;-74
2023/02/22 08:52:15;;;;;;;17.67;8.93;;;;;;;;;;4999686;28;20506;-73
2023/02/22 08:54:41;;;;;;;18.58;9.15;;;;;;;;;;5007181;28;20052;-77
2023/02/22 08:57:06;;;;;;;20.80;10.15;;;;;;;;;;5009219;28;20037;-74
2023/02/22 08:59:31;;;;;;;12.02;5.78;;;;;;;;;;5013615;28;20038;-73
2023/02/22 09:01:57;;;;;;;11.05;5.68;;;;;;;;;;5028430;28;20041;-73
2023/02/22 09:04:22;;;;;;;12.10;6.05;;;;;;;;;;4996027;28;20048;-73
2023/02/22 09:06:50;;;;;;;8.43;4.50;;;;;;;;;;5010344;28;20390;-73
2023/02/22 09:09:19;;;;;;;10.00;4.22;;;;;;;;;;5010693;28;20104;-77
2023/02/22 09:11:45;;;;;;;8.75;4.68;;;;;;;;;;5025760;28;20041;-73
2023/02/22 09:14:13;;;;;;;9.88;5.03;;;;;;;;;;5010236;28;20109;-76
2023/02/22 09:16:39;;;;;;;9.57;4.97;;;;;;;;;;5010272;28;20034;-75
2023/02/22 09:19:05;;;;;;;7.50;4.68;;;;;;;;;;5008309;28;20117;-73
2023/02/22 09:21:30;;;;;;;7.60;3.80;;;;;;;;;;5014969;28;20116;-73
2023/02/22 09:23:57;;;;;;;6.53;3.65;;;;;;;;;;5011694;28;20042;-74
2023/02/22 09:26:22;;;;;;;7.45;4.15;;;;;;;;;;5006211;28;20037;-73
2023/02/22 09:28:49;;;;;;;5.30;2.88;;;;;;;;;;5017085;28;20025;-74
2023/02/22 09:31:14;;;;;;;3.28;1.83;;;;;;;;;;5017977;28;20437;-73
2023/02/22 09:33:40;;;;;;;3.58;2.05;;;;;;;;;;5013470;28;20033;-75
2023/02/22 09:36:06;;;;;;;2.70;1.52;;;;;;;;;;4993343;28;20045;-73
2023/02/22 09:38:32;;;;;;;2.22;1.40;;;;;;;;;;5001020;28;20120;-75
2023/02/22 09:41:11;;;;;;;3.58;1.60;;;;;;;;;;5006700;28;20106;-74
2023/02/22 09:43:51;;;;;;;3.85;1.60;;;;;;;;;;5011848;28;20042;-75
2023/02/22 09:46:33;;;;;;;3.85;1.05;;;;;;;;;;5022076;28;20050;-75
2023/02/22 09:49:20;;;;;;;2.00;1.05;;;;;;;;;;5015648;28;20054;-74
2023/02/22 09:51:51;;;;;;;2.08;0.82;;;;;;;;;;5017144;28;20096;-74
2023/02/22 09:54:50;;;;;;;1.65;0.70;;;;;;;;;;5018460;28;20397;-74
2023/02/22 09:57:24;;;;;;;2.88;0.80;;;;;;;;;;5014505;28;20091;-72
2023/02/22 10:00:12;;;;;;;3.47;0.80;;;;;;;;;;5025068;28;20048;-72
2023/02/22 10:03:05;;;;;;;1.05;0.70;;;;;;;;;;5019461;28;20047;-74
2023/02/22 10:05:45;;;;;;;1.38;0.70;;;;;;;;;;5002619;28;20053;-77
2023/02/22 10:08:13;;;;;;;1.60;0.70;;;;;;;;;;5005392;28;20077;-74
2023/02/22 10:10:44;;;;;;;1.95;0.85;;;;;;;;;;5000300;28;20368;-79
2023/02/22 10:13:22;;;;;;;2.15;0.80;;;;;;;;;;5014932;28;20064;-75
2023/02/22 10:16:37;;;;;;;1.98;0.77;;;;;;;;;;5012746;28;20045;-75
2023/02/22 10:19:09;;;;;;;0.88;0.57;;;;;;;;;;4998982;28;20129;-74
2023/02/22 10:21:41;;;;;;;0.87;0.50;;;;;;;;;;5008225;28;20394;-75
2023/02/22 10:24:23;;;;;;;1.02;0.55;;;;;;;;;;5012392;28;20096;-74
2023/02/22 10:26:49;;;;;;;0.40;0.40;;;;;;;;;;5007916;28;20042;-74
2023/02/22 10:29:24;;;;;;;0.45;0.45;;;;;;;;;;4998631;28;20363;-74
2023/02/22 10:31:54;;;;;;;1.17;0.50;;;;;;;;;;5011859;28;20042;-74
2023/02/22 10:34:24;;;;;;;0.43;0.40;;;;;;;;;;5007596;28;20049;-74
2023/02/22 10:36:56;;;;;;;0.75;0.47;;;;;;;;;;5000805;28;20103;-74
2023/02/22 10:39:30;;;;;;;0.77;0.30;;;;;;;;;;5007866;28;20125;-74
2023/02/22 10:41:57;;;;;;;0.82;0.47;;;;;;;;;;5026512;28;20101;-74
2023/02/22 10:44:23;;;;;;;0.85;0.40;;;;;;;;;;4987894;28;20485;-73
2023/02/22 10:46:48;;;;;;;0.40;0.40;;;;;;;;;;5022467;28;20482;-75
2023/02/22 10:49:21;;;;;;;0.30;0.30;;;;;;;;;;5001019;28;20070;-77
2023/02/22 10:52:01;;;;;;;3.47;0.35;;;;;;;;;;5013077;28;20062;-74
2023/02/22 10:54:36;;;;;;;0.32;0.30;;;;;;;;;;5011557;28;20033;-73
2023/02/22 10:57:02;;;;;;;0.68;0.30;;;;;;;;;;5005295;28;20050;-74
2023/02/22 10:59:39;;;;;;;0.30;0.30;;;;;;;;;;4992862;28;20038;-73
2023/02/22 11:02:29;;;;;;;0.30;0.30;;;;;;;;;;5006700;28;20434;-73
2023/02/22 11:04:59;;;;;;;1.08;0.47;;;;;;;;;;5009744;28;20048;-78
2023/02/22 11:07:29;;;;;;;1.13;0.22;;;;;;;;;;5026863;28;20065;-73
2023/02/22 11:09:58;;;;;;;0.35;0.30;;;;;;;;;;5011484;28;20420;-74
2023/02/22 11:12:27;;;;;;;0.30;0.30;;;;;;;;;;5011317;28;20045;-73
2023/02/22 11:14:53;;;;;;;1.95;0.50;;;;;;;;;;5010769;28;20034;-76
2023/02/22 11:17:26;;;;;;;0.30;0.30;;;;;;;;;;4993164;28;20289;-73
2023/02/22 11:19:52;;;;;;;0.70;0.30;;;;;;;;;;5009598;28;20077;-74
2023/02/22 11:22:29;;;;;;;0.20;0.20;;;;;;;;;;5026280;28;20473;-75
2023/02/22 11:25:00;;;;;;;1.42;0.50;;;;;;;;;;5025429;28;20099;-73
2023/02/22 11:27:37;;;;;;;0.28;0.20;;;;;;;;;;5008058;28;20037;-73
2023/02/22 11:30:33;;;;;;;1.60;0.40;;;;;;;;;;5007047;28;20045;-73
2023/02/22 11:33:05;;;;;;;0.43;0.40;;;;;;;;;;5015717;28;20450;-74
2023/02/22 11:35:37;;;;;;;0.60;0.40;;;;;;;;;;4995085;28;20046;-74
2023/02/22 11:38:39;;;;;;;0.20;0.20;;;;;;;;;;5004518;28;20061;-75
2023/02/22 11:41:28;;;;;;;0.63;0.30;;;;;;;;;;4986589;28;20056;-74
2023/02/22 11:44:20;;;;;;;0.93;0.45;;;;;;;;;;4994973;28;20129;-74
2023/02/22 11:46:46;;;;;;;2.72;0.60;;;;;;;;;;5005722;28;20519;-73
2023/02/22 11:49:12;;;;;;;0.57;0.40;;;;;;;;;;5006691;28;20214;-75
2023/02/22 11:51:47;;;;;;;0.63;0.40;;;;;;;;;;5009003;28;20053;-74
2023/02/22 11:54:46;;;;;;;1.80;0.60;;;;;;;;;;5009946;28;20048;-74
2023/02/22 11:57:35;;;;;;;1.33;0.50;;;;;;;;;;5009747;28;20041;-73
2023/02/22 12:00:14;;;;;;;0.70;0.40;;;;;;;;;;4982117;28;20054;-74
2023/02/22 12:02:58;;;;;;;3.05;0.65;;;;;;;;;;5001606;28;20049;-75
2023/02/22 12:05:36;;;;;;;;;;;;;;;;;;4998764;28;20402;-73
2023/02/22 12:08:14;;;;;;;2.08;0.50;;;;;;;;;;5025538;28;19996;-74
2023/02/22 12:10:54;;;;;;;0.57;0.40;;;;;;;;;;5004252;28;20125;-75
2023/02/22 12:13:22;;;;;;;1.38;0.50;;;;;;;;;;5004133;28;20061;-73
2023/02/22 12:16:06;;;;;;;1.38;0.52;;;;;;;;;;5002953;28;20038;-74
2023/02/22 12:18:38;;;;;;;1.45;0.52;;;;;;;;;;4994725;28;20054;-73
2023/02/22 12:21:15;;;;;;;2.13;0.57;;;;;;;;;;5024614;28;20037;-75
2023/02/22 12:23:50;;;;;;;0.47;0.30;;;;;;;;;;5022696;28;20385;-74
2023/02/22 12:26:19;;;;;;;0.30;0.30;;;;;;;;;;5006405;28;20100;-74
2023/02/22 12:28:58;;;;;;;0.40;0.20;;;;;;;;;;5008265;28;20474;-74
2023/02/22 12:31:59;;;;;;;0.20;0.20;;;;;;;;;;4991757;28;20571;-73
2023/02/22 12:34:27;;;;;;;0.55;0.28;;;;;;;;;;4988016;28;20061;-73
2023/02/22 12:37:13;;;;;;;0.52;0.22;;;;;;;;;;5005439;28;20107;-73
2023/02/22 12:39:55;;;;;;;0.52;0.40;;;;;;;;;;4994942;28;20055;-78
2023/02/22 12:43:09;;;;;;;1.33;0.50;;;;;;;;;;5010540;28;20093;-73
2023/02/22 12:45:39;;;;;;;0.47;0.35;;;;;;;;;;4987188;28;20104;-76
2023/02/22 12:48:32;;;;;;;0.90;0.47;;;;;;;;;;5004118;28;20038;-74
2023/02/22 12:51:14;;;;;;;1.65;0.50;;;;;;;;;;5000865;28;20053;-73
2023/02/22 12:53:44;;;;;;;3.80;0.60;;;;;;;;;;5019505;28;20056;-74
2023/02/22 12:56:25;;;;;;;0.47;0.40;;;;;;;;;;5014118;28;20041;-74
2023/02/22 12:58:57;;;;;;;1.65;0.50;;;;;;;;;;5010487;28;20049;-76
2023/02/22 13:01:28;;;;;;;1.58;0.70;;;;;;;;;;5025256;28;20065;-73
2023/02/22 13:03:54;;;;;;;3.97;0.65;;;;;;;;;;5009467;28;20050;-73
2023/02/22 13:06:32;;;;;;;2.40;0.65;;;;;;;;;;5016584;28;20129;-74
2023/02/22 13:09:27;;;;;;;1.13;0.60;;;;;;;;;;5009243;28;20037;-74
2023/02/22 13:12:13;;;;;;;1.55;0.50;;;;;;;;;;4991671;28;20493;-73
2023/02/22 13:14:57;;;;;;;1.48;0.60;;;;;;;;;;4994197;28;20382;-74
2023/02/22 13:17:42;;;;;;;;;;;;;;;;;;5025294;28;20069;-73
2023/02/22 13:20:22;;;;;;;2.17;0.40;;;;;;;;;;5008243;28;19980;-73
2023/02/22 13:22:56;;;;;;;0.88;0.40;;;;;;;;;;5007404;28;20096;-74
2023/02/22 13:25:34;;;;;;;;;;;;;;;;;;5005444;28;21058;-73
2023/02/22 13:28:12;;;;;;;3.65;0.50;;;;;;;;;;4990284;28;19975;-76
2023/02/22 13:30:44;;;;;;;1.17;0.43;;;;;;;;;;4998861;28;20477;-74
2023/02/22 13:33:24;;;;;;;4.53;0.43;;;;;;;;;;4988809;28;20058;-74
2023/02/22 13:35:59;;;;;;;1.20;0.40;;;;;;;;;;4991125;28;20052;-74
2023/02/22 13:38:42;;;;;;;1.50;0.60;;;;;;;;;;5000208;28;20033;-74
2023/02/22 13:41:16;;;;;;;1.15;0.60;;;;;;;;;;5000828;28;20064;-73
2023/02/22 13:43:47;;;;;;;4.30;0.45;;;;;;;;;;5007308;28;20176;-74
2023/02/22 13:46:18;;;;;;;1.83;0.40;;;;;;;;;;5012391;28;20048;-74
2023/02/22 13:49:22;;;;;;;0.95;0.35;;;;;;;;;;5003043;28;20040;-74
2023/02/22 13:51:58;;;;;;;1.55;0.50;;;;;;;;;;5002060;28;20103;-74
2023/02/22 13:54:30;;;;;;;0.45;0.40;;;;;;;;;;5003320;28;20040;-74
2023/02/22 13:56:56;;;;;;;1.55;0.43;;;;;;;;;;5006213;28;20042;-78
2023/02/22 13:59:28;;;;;;;1.17;0.50;;;;;;;;;;4991780;28;20085;-74
2023/02/22 14:01:53;;;;;;;1.10;0.40;;;;;;;;;;5021727;28;20033;-76
2023/02/22 14:04:28;;;;;;;1.85;0.63;;;;;;;;;;5000190;28;20046;-73
2023/02/22 14:06:59;;;;;;;1.55;0.50;;;;;;;;;;4995142;28;20108;-74
2023/02/22 14:09:47;;;;;;;1.27;0.50;;;;;;;;;;4997659;28;20043;-74
2023/02/22 14:12:35;;;;;;;0.60;0.45;;;;;;;;;;5005133;28;20113;-73
2023/02/22 14:15:13;;;;;;;0.52;0.40;;;;;;;;;;5007749;28;20050;-73
2023/02/22 14:17:56;;;;;;;0.80;0.40;;;;;;;;;;5006672;28;20042;-73
2023/02/22 14:20:35;;;;;;;2.28;0.30;;;;;;;;;;5005433;28;20042;-75
2023/02/22 14:23:28;;;;;;;0.85;0.50;;;;;;;;;;5010418;28;20034;-73
2023/02/22 14:25:55;;;;;;;0.82;0.45;;;;;;;;;;4994364;28;20478;-74
2023/02/22 14:28:52;;;;;;;1.33;0.70;;;;;;;;;;5003485;28;20045;-73
2023/02/22 14:31:32;;;;;;;0.88;0.50;;;;;;;;;;5006917;28;20478;-74
2023/02/22 14:34:11;;;;;;;0.60;0.47;;;;;;;;;;5001572;28;20042;-74
2023/02/22 14:36:40;;;;;;;2.63;0.65;;;;;;;;;;5014094;28;20046;-73
2023/02/22 14:39:13;;;;;;;1.27;0.52;;;;;;;;;;5000830;28;20046;-74
2023/02/22 14:41:42;;;;;;;1.38;0.60;;;;;;;;;;5012820;28;20034;-73
2023/02/22 14:44:11;;;;;;;0.75;0.55;;;;;;;;;;5023335;28;20038;-73
2023/02/22 14:46:39;;;;;;;5.53;0.50;;;;;;;;;;5026912;28;20065;-75
2023/02/22 14:49:08;;;;;;;1.60;0.50;;;;;;;;;;5003894;28;20836;-75
2023/02/22 14:51:43;;;;;;;4.82;0.70;;;;;;;;;;5018215;28;20061;-74